createdAt,value
2024-04-06T00:00:41.300Z,14.77
2024-04-06T00:03:29.261Z,14.93
2024-04-06T00:05:57.242Z,15.07
2024-04-06T00:08:25.090Z,15.19
2024-04-06T00:10:52.891Z,15.28
2024-04-06T00:13:20.705Z,15.40
2024-04-06T00:15:48.975Z,15.45
2024-04-06T00:18:17.230Z,15.51
2024-04-06T00:20:45.065Z,15.56
2024-04-06T00:23:12.922Z,15.61
2024-04-06T00:25:40.783Z,15.36
2024-04-06T00:28:08.679Z,14.55
2024-04-06T00:30:36.604Z,13.78
2024-04-06T00:33:04.761Z,13.19
2024-04-06T00:35:32.571Z,13.25
2024-04-06T00:38:00.326Z,13.86
2024-04-06T00:40:28.083Z,14.35
2024-04-06T00:42:56.033Z,14.67
2024-04-06T00:45:23.962Z,14.91
2024-04-06T00:47:51.823Z,15.08
2024-04-06T00:50:20.680Z,15.19
2024-04-06T00:52:48.533Z,15.35
2024-04-06T00:55:17.257Z,15.47
2024-04-06T00:57:45.083Z,15.52
2024-04-06T01:00:13.070Z,15.56
2024-04-06T01:02:40.950Z,15.65
2024-04-06T01:05:08.786Z,15.69
2024-04-06T01:07:40.296Z,15.74
2024-04-06T01:10:08.125Z,15.76
2024-04-06T01:12:36.033Z,15.82
2024-04-06T01:15:05.059Z,15.87
2024-04-06T01:17:33.379Z,15.90
2024-04-06T01:20:02.038Z,15.74
2024-04-06T01:22:29.951Z,14.91
2024-04-06T01:24:58.949Z,14.09
2024-04-06T01:27:26.776Z,13.51
2024-04-06T01:29:54.527Z,13.05
2024-04-06T01:32:22.384Z,12.69
2024-04-06T01:34:50.352Z,12.40
2024-04-06T01:37:20.245Z,12.28
2024-04-06T01:39:48.124Z,12.93
2024-04-06T01:42:15.856Z,13.69
2024-04-06T01:44:43.743Z,14.23
2024-04-06T01:47:11.543Z,14.59
2024-04-06T01:49:39.410Z,14.88
2024-04-06T01:52:07.151Z,15.13
2024-04-06T01:54:34.907Z,15.32
2024-04-06T01:57:02.672Z,15.50
2024-04-06T01:59:34.911Z,15.62
2024-04-06T02:02:02.999Z,15.71
2024-04-06T02:04:30.782Z,15.80
2024-04-06T02:06:58.541Z,15.41
2024-04-06T02:09:26.212Z,14.57
2024-04-06T02:11:53.962Z,13.86
2024-04-06T02:14:21.797Z,13.36
2024-04-06T02:16:49.799Z,13.02
2024-04-06T02:19:17.593Z,13.59
2024-04-06T02:21:45.442Z,14.31
2024-04-06T02:24:13.220Z,14.74
2024-04-06T02:26:42.464Z,15.04
2024-04-06T02:29:10.653Z,15.25
2024-04-06T02:31:38.797Z,15.43
2024-04-06T02:34:06.668Z,15.56
2024-04-06T02:36:36.373Z,15.64
2024-04-06T02:39:05.086Z,15.75
2024-04-06T02:41:32.942Z,15.59
2024-04-06T02:44:01.685Z,14.85
2024-04-06T02:46:29.558Z,14.09
2024-04-06T02:48:57.395Z,13.52
2024-04-06T02:51:25.894Z,13.15
2024-04-06T02:53:53.609Z,13.57
2024-04-06T02:56:22.594Z,14.24
2024-04-06T02:58:50.358Z,14.73
2024-04-06T03:01:18.193Z,15.05
2024-04-06T03:03:46.073Z,15.32
2024-04-06T03:06:13.868Z,15.49
2024-04-06T03:08:41.788Z,15.61
2024-04-06T03:11:09.905Z,15.72
2024-04-06T03:13:37.788Z,15.80
2024-04-06T03:16:07.278Z,15.81
2024-04-06T03:18:34.941Z,15.29
2024-04-06T03:21:05.652Z,14.49
2024-04-06T03:23:33.475Z,13.84
2024-04-06T03:26:01.368Z,13.41
2024-04-06T03:28:30.154Z,13.70
2024-04-06T03:30:59.024Z,14.35
2024-04-06T03:33:26.880Z,14.80
2024-04-06T03:35:54.612Z,15.14
2024-04-06T03:38:22.535Z,15.41
2024-04-06T03:40:50.406Z,15.58
2024-04-06T03:43:18.426Z,15.72
2024-04-06T03:45:48.208Z,15.82
2024-04-06T03:48:15.966Z,15.93
2024-04-06T03:50:43.935Z,15.95
2024-04-06T03:53:12.580Z,15.32
2024-04-06T03:55:40.341Z,14.55
2024-04-06T03:58:08.771Z,13.95
2024-04-06T04:00:37.097Z,13.50
2024-04-06T04:03:05.439Z,13.48
2024-04-06T04:05:33.555Z,14.11
2024-04-06T04:08:01.653Z,14.66
2024-04-06T04:10:29.527Z,15.02
2024-04-06T04:12:58.866Z,15.26
2024-04-06T04:15:26.847Z,15.44
2024-04-06T04:17:55.145Z,15.55
2024-04-06T04:20:22.825Z,15.67
2024-04-06T04:22:51.484Z,15.77
2024-04-06T04:25:19.241Z,15.86
2024-04-06T04:27:47.101Z,15.90
2024-04-06T04:30:16.826Z,15.99
2024-04-06T04:32:44.719Z,16.01
2024-04-06T04:35:12.507Z,16.05
2024-04-06T04:37:40.365Z,16.07
2024-04-06T04:40:09.763Z,16.02
2024-04-06T04:42:38.335Z,16.03
2024-04-06T04:45:12.631Z,16.08
2024-04-06T04:47:41.369Z,16.10
2024-04-06T04:50:12.739Z,16.11
2024-04-06T04:52:40.687Z,16.18
2024-04-06T04:55:08.402Z,16.14
2024-04-06T04:57:36.402Z,16.09
2024-04-06T05:00:04.912Z,16.04
2024-04-06T05:02:32.650Z,16.02
2024-04-06T05:05:00.596Z,16.05
2024-04-06T05:07:28.588Z,16.16
2024-04-06T05:09:56.400Z,16.21
2024-04-06T05:12:24.206Z,16.22
2024-04-06T05:14:52.048Z,16.24
2024-04-06T05:17:19.943Z,16.30
2024-04-06T05:19:47.844Z,16.36
2024-04-06T05:22:15.784Z,16.43
2024-04-06T05:24:43.581Z,16.51
2024-04-06T05:27:11.354Z,16.57
2024-04-06T05:29:39.531Z,16.60
2024-04-06T05:32:07.613Z,16.66
2024-04-06T05:34:35.552Z,16.74
2024-04-06T05:37:03.659Z,16.89
2024-04-06T05:39:31.468Z,17.03
2024-04-06T05:41:59.564Z,17.10
2024-04-06T05:44:27.341Z,17.28
2024-04-06T05:46:55.387Z,18.19
2024-04-06T05:49:23.428Z,19.39
2024-04-06T05:51:51.336Z,20.34
2024-04-06T05:54:19.186Z,20.78
2024-04-06T05:56:46.987Z,21.27
2024-04-06T05:59:14.809Z,21.36
2024-04-06T06:01:42.647Z,21.08
2024-04-06T06:04:11.542Z,21.27
2024-04-06T06:06:39.364Z,21.72
2024-04-06T06:09:07.232Z,22.26
2024-04-06T06:11:35.652Z,22.58
2024-04-06T06:14:03.405Z,22.77
2024-04-06T06:16:31.156Z,22.65
2024-04-06T06:18:59.108Z,22.53
2024-04-06T06:21:26.953Z,22.34
2024-04-06T06:23:55.034Z,21.85
2024-04-06T06:26:23.310Z,21.15
2024-04-06T06:28:51.104Z,20.32
2024-04-06T06:31:18.927Z,19.62
2024-04-06T06:33:46.709Z,19.05
2024-04-06T06:41:17.016Z,17.65
2024-04-06T06:43:44.852Z,18.49
2024-04-06T06:46:12.557Z,20.14
2024-04-06T06:48:40.489Z,21.64
2024-04-06T06:51:08.309Z,22.27
2024-04-06T06:53:36.218Z,22.50
2024-04-06T06:56:04.496Z,22.70
2024-04-06T06:58:32.787Z,23.00
2024-04-06T07:01:00.606Z,23.08
2024-04-06T07:03:28.601Z,22.69
2024-04-06T07:05:56.703Z,22.67
2024-04-06T07:08:24.778Z,22.29
2024-04-06T07:10:52.558Z,22.26
2024-04-06T07:13:20.550Z,22.09
2024-04-06T07:15:48.585Z,22.35
2024-04-06T07:18:16.601Z,22.50
2024-04-06T07:20:44.505Z,22.68
2024-04-06T07:23:12.528Z,22.59
2024-04-06T07:25:41.902Z,22.82
2024-04-06T07:28:11.010Z,23.19
2024-04-06T07:30:38.991Z,23.38
2024-04-06T07:33:06.974Z,23.43
2024-04-06T07:35:35.041Z,23.64
2024-04-06T07:38:03.060Z,23.74
2024-04-06T07:40:31.165Z,23.75
2024-04-06T07:43:00.921Z,24.00
2024-04-06T07:45:28.708Z,24.18
2024-04-06T07:47:56.870Z,24.43
2024-04-06T07:50:24.970Z,24.58
2024-04-06T07:52:54.554Z,24.71
2024-04-06T07:55:24.343Z,24.82
2024-04-06T07:57:52.374Z,24.68
2024-04-06T08:00:20.473Z,24.61
2024-04-06T08:02:48.417Z,24.43
2024-04-06T08:05:16.486Z,23.87
2024-04-06T08:07:44.386Z,23.03
2024-04-06T08:10:17.571Z,22.20
2024-04-06T08:12:45.715Z,21.51
2024-04-06T08:15:13.923Z,20.86
2024-04-06T08:17:43.730Z,20.53
2024-04-06T08:20:11.671Z,20.42
2024-04-06T08:22:40.001Z,20.22
2024-04-06T08:25:08.061Z,19.92
2024-04-06T08:27:36.474Z,19.62
2024-04-06T08:30:06.027Z,19.45
2024-04-06T08:32:36.342Z,19.43
2024-04-06T08:35:04.434Z,19.53
2024-04-06T08:37:32.205Z,19.52
2024-04-06T08:40:00.162Z,19.43
2024-04-06T08:42:28.731Z,19.47
2024-04-06T08:44:56.585Z,19.49
2024-04-06T08:47:24.386Z,19.53
2024-04-06T08:49:52.305Z,19.61
2024-04-06T08:52:20.226Z,19.63
2024-04-06T08:54:48.477Z,19.61
2024-04-06T08:57:16.442Z,19.65
2024-04-06T08:59:44.320Z,19.57
2024-04-06T09:02:12.106Z,19.50
2024-04-06T09:04:40.112Z,19.49
2024-04-06T09:07:09.777Z,19.48
2024-04-06T09:09:38.196Z,19.52
2024-04-06T09:12:06.359Z,19.58
2024-04-06T09:14:42.911Z,19.56
2024-04-06T09:17:10.727Z,19.60
2024-04-06T09:19:38.606Z,19.73
2024-04-06T09:22:09.786Z,19.68
2024-04-06T09:24:40.447Z,19.65
2024-04-06T09:27:13.677Z,19.73
2024-04-06T09:29:47.450Z,19.86
2024-04-06T09:32:21.851Z,19.85
2024-04-06T09:34:52.213Z,19.84
2024-04-06T09:37:33.837Z,19.76
2024-04-06T09:40:01.757Z,19.75
2024-04-06T09:42:29.615Z,19.86
2024-04-06T09:44:57.690Z,19.98
2024-04-06T09:47:25.598Z,19.97
2024-04-06T09:49:53.614Z,19.92
2024-04-06T09:52:21.831Z,19.84
2024-04-06T09:54:49.789Z,19.76
2024-04-06T09:57:22.096Z,19.77
2024-04-06T10:00:03.293Z,19.91
2024-04-06T10:02:34.025Z,20.10
2024-04-06T10:05:06.154Z,20.12
2024-04-06T10:07:35.332Z,20.18
2024-04-06T10:10:08.102Z,20.26
2024-04-06T10:12:42.503Z,20.42
2024-04-06T10:15:20.310Z,20.55
2024-04-06T10:17:59.164Z,20.52
2024-04-06T10:20:29.065Z,20.40
2024-04-06T10:23:00.620Z,20.46
2024-04-06T10:25:37.682Z,20.56
2024-04-06T10:28:07.426Z,20.50
2024-04-06T10:30:41.561Z,20.42
2024-04-06T10:33:09.589Z,20.37
2024-04-06T10:35:37.457Z,20.36
2024-04-06T10:38:07.374Z,20.36
2024-04-06T10:40:35.617Z,20.42
2024-04-06T10:43:07.108Z,20.34
2024-04-06T10:45:35.169Z,20.24
2024-04-06T10:48:03.827Z,20.14
2024-04-06T10:50:32.223Z,20.07
2024-04-06T10:53:01.460Z,19.97
2024-04-06T10:55:29.990Z,19.95
2024-04-06T10:57:57.960Z,19.95
2024-04-06T11:00:27.817Z,20.03
2024-04-06T11:03:02.711Z,20.21
2024-04-06T11:05:31.182Z,20.26
2024-04-06T11:07:59.011Z,20.26
2024-04-06T11:10:27.313Z,20.18
2024-04-06T11:12:55.372Z,20.03
2024-04-06T11:15:23.798Z,20.04
2024-04-06T11:17:51.574Z,19.85
2024-04-06T11:20:19.463Z,19.76
2024-04-06T11:22:47.504Z,19.77
2024-04-06T11:25:20.626Z,19.82
2024-04-06T11:27:52.886Z,19.80
2024-04-06T11:30:21.530Z,19.83
2024-04-06T11:32:51.261Z,19.85
2024-04-06T11:35:19.399Z,19.87
2024-04-06T11:37:47.348Z,19.95
2024-04-06T11:40:15.710Z,20.00
2024-04-06T11:42:43.533Z,20.12
2024-04-06T11:45:11.369Z,20.21
2024-04-06T11:47:40.875Z,20.34
2024-04-06T11:50:09.107Z,20.47
2024-04-06T11:52:37.017Z,20.76
2024-04-06T11:55:05.186Z,20.64
2024-04-06T11:57:33.145Z,20.37
2024-04-06T12:00:00.953Z,20.20
2024-04-06T12:02:28.886Z,20.15
2024-04-06T12:04:56.772Z,20.08
2024-04-06T12:07:24.939Z,20.05
2024-04-06T12:09:53.554Z,19.98
2024-04-06T12:12:21.336Z,19.81
2024-04-06T12:14:49.144Z,19.79
2024-04-06T12:17:27.428Z,19.83
2024-04-06T12:19:55.810Z,19.93
2024-04-06T12:22:23.967Z,19.93
2024-04-06T12:24:55.388Z,19.91
2024-04-06T12:27:23.444Z,19.84
2024-04-06T12:29:51.491Z,19.57
2024-04-06T12:32:19.315Z,19.40
2024-04-06T12:34:47.246Z,19.24
2024-04-06T12:37:15.564Z,19.06
2024-04-06T12:39:43.878Z,19.01
2024-04-06T12:42:12.351Z,18.97
2024-04-06T12:44:41.036Z,19.09
2024-04-06T12:47:09.010Z,19.29
2024-04-06T12:49:38.333Z,19.46
2024-04-06T12:52:06.437Z,19.57
2024-04-06T12:54:34.285Z,19.65
2024-04-06T12:57:20.464Z,19.76
2024-04-06T12:59:48.286Z,20.07
2024-04-06T13:04:45.420Z,20.30
2024-04-06T13:07:13.167Z,20.48
2024-04-06T13:09:41.377Z,20.54
2024-04-06T13:12:09.865Z,20.58
2024-04-06T13:14:40.604Z,20.65
2024-04-06T13:17:08.379Z,20.63
2024-04-06T13:19:36.242Z,20.48
2024-04-06T13:22:04.526Z,20.39
2024-04-06T13:24:32.306Z,20.25
2024-04-06T13:27:00.433Z,20.28
2024-04-06T13:29:28.826Z,20.17
2024-04-06T13:31:56.788Z,19.89
2024-04-06T13:34:24.813Z,19.67
2024-04-06T13:36:53.719Z,19.45
2024-04-06T13:39:22.233Z,19.26
2024-04-06T13:41:50.068Z,19.06
2024-04-06T13:44:18.089Z,18.99
2024-04-06T13:46:45.787Z,19.11
2024-04-06T13:49:13.660Z,19.30
2024-04-06T13:51:41.530Z,19.47
2024-04-06T13:54:09.503Z,19.60
2024-04-06T13:56:39.659Z,19.67
2024-04-06T13:59:08.759Z,19.73
2024-04-06T14:01:37.129Z,19.86
2024-04-06T14:04:06.604Z,20.02
2024-04-06T14:06:34.811Z,20.04
2024-04-06T14:09:02.980Z,19.94
2024-04-06T14:11:32.478Z,19.74
2024-04-06T14:14:03.935Z,19.74
2024-04-06T14:16:31.807Z,19.77
2024-04-06T14:18:59.567Z,19.80
2024-04-06T14:21:27.496Z,19.84
2024-04-06T14:23:55.259Z,19.84
2024-04-06T14:26:23.040Z,19.80
2024-04-06T14:28:50.866Z,19.74
2024-04-06T14:31:19.509Z,19.74
2024-04-06T14:33:47.384Z,19.74
2024-04-06T14:36:15.141Z,19.66
2024-04-06T14:38:43.148Z,19.55
2024-04-06T14:41:11.040Z,19.45
2024-04-06T14:43:39.455Z,19.37
2024-04-06T14:46:07.602Z,19.21
2024-04-06T14:48:36.322Z,19.05
2024-04-06T14:51:05.244Z,18.93
2024-04-06T14:53:33.027Z,18.84
2024-04-06T14:56:00.909Z,18.79
2024-04-06T14:58:28.808Z,18.70
2024-04-06T15:00:56.665Z,18.59
2024-04-06T15:03:24.452Z,18.50
2024-04-06T15:05:53.435Z,18.44
2024-04-06T15:08:21.734Z,18.36
2024-04-06T15:10:49.991Z,18.34
2024-04-06T15:13:19.499Z,18.35
2024-04-06T15:15:47.522Z,18.38
2024-04-06T15:18:15.378Z,18.33
2024-04-06T15:20:44.986Z,18.35
2024-04-06T15:23:13.949Z,18.34
2024-04-06T15:25:41.786Z,18.25
2024-04-06T15:28:09.631Z,18.18
2024-04-06T15:30:37.430Z,18.14
2024-04-06T15:33:05.348Z,18.12
2024-04-06T15:35:33.468Z,18.10
2024-04-06T15:38:01.513Z,18.10
2024-04-06T15:40:29.579Z,18.08
2024-04-06T15:42:57.618Z,18.03
2024-04-06T15:45:25.467Z,17.99
2024-04-06T15:48:11.825Z,17.88
2024-04-06T15:50:39.908Z,17.80
2024-04-06T15:53:08.046Z,17.74
2024-04-06T15:55:36.245Z,17.68
2024-04-06T15:58:04.737Z,17.64
2024-04-06T16:00:32.937Z,17.65
2024-04-06T16:03:01.283Z,17.67
2024-04-06T16:05:29.253Z,17.67
2024-04-06T16:07:57.157Z,17.66
2024-04-06T16:10:24.996Z,17.64
2024-04-06T16:12:53.131Z,17.59
2024-04-06T16:15:20.949Z,17.55
2024-04-06T16:17:48.946Z,17.51
2024-04-06T16:20:16.824Z,17.50
2024-04-06T16:22:44.503Z,17.49
2024-04-06T16:25:14.143Z,17.47
2024-04-06T16:27:41.870Z,17.46
2024-04-06T16:30:10.298Z,17.42
2024-04-06T16:32:38.341Z,17.37
2024-04-06T16:35:06.946Z,17.31
2024-04-06T16:37:34.765Z,17.24
2024-04-06T16:40:05.460Z,17.15
2024-04-06T16:42:33.184Z,17.04
2024-04-06T16:45:00.949Z,16.94
2024-04-06T16:47:28.843Z,16.86
2024-04-06T16:49:56.578Z,16.75
2024-04-06T16:52:24.630Z,16.65
2024-04-06T16:54:52.409Z,16.54
2024-04-06T16:57:20.062Z,16.42
2024-04-06T16:59:47.804Z,16.30
2024-04-06T17:02:16.101Z,16.18
2024-04-06T17:04:43.884Z,16.04
2024-04-06T17:07:11.590Z,15.91
2024-04-06T17:09:39.408Z,15.78
2024-04-06T17:12:08.519Z,15.65
2024-04-06T17:14:36.447Z,15.51
2024-04-06T17:17:04.507Z,15.38
2024-04-06T17:19:32.320Z,15.25
2024-04-06T17:22:00.130Z,15.12
2024-04-06T17:24:27.889Z,14.99
2024-04-06T17:26:55.744Z,14.87
2024-04-06T17:29:23.504Z,14.75
2024-04-06T17:31:51.328Z,14.63
2024-04-06T17:34:19.302Z,14.50
2024-04-06T17:36:47.413Z,14.37
2024-04-06T17:39:15.232Z,14.25
2024-04-06T17:41:43.944Z,14.14
2024-04-06T17:44:11.785Z,14.05
2024-04-06T17:46:41.040Z,13.95
2024-04-06T17:49:09.057Z,13.85
2024-04-06T17:51:36.846Z,13.76
2024-04-06T17:54:05.179Z,13.65
2024-04-06T17:56:33.179Z,13.53
2024-04-06T17:59:02.670Z,13.43
2024-04-06T18:01:31.239Z,13.33
2024-04-06T18:03:58.991Z,13.24
2024-04-06T18:06:26.808Z,13.15
2024-04-06T18:08:54.853Z,13.07
2024-04-06T18:11:22.591Z,12.99
2024-04-06T18:13:50.779Z,12.91
2024-04-06T18:16:20.642Z,12.82
2024-04-06T18:18:49.526Z,12.72
2024-04-06T18:21:21.034Z,12.92
2024-04-06T18:23:48.830Z,13.80
2024-04-06T18:26:16.663Z,14.55
2024-04-06T18:28:44.440Z,15.10
2024-04-06T18:31:12.120Z,15.47
2024-04-06T18:33:41.757Z,15.74
2024-04-06T18:36:11.826Z,15.96
2024-04-06T18:38:40.284Z,16.15
2024-04-06T18:41:10.212Z,16.32
2024-04-06T18:43:37.967Z,16.46
2024-04-06T18:46:06.336Z,16.56
2024-04-06T18:48:35.421Z,16.66
2024-04-06T18:51:04.108Z,16.71
2024-04-06T18:53:32.421Z,16.11
2024-04-06T18:56:02.981Z,15.22
2024-04-06T18:58:32.132Z,14.51
2024-04-06T19:01:00.139Z,14.00
2024-04-06T19:03:27.880Z,13.61
2024-04-06T19:05:57.017Z,13.29
2024-04-06T19:08:24.892Z,13.00
2024-04-06T19:10:52.669Z,12.74
2024-04-06T19:13:20.434Z,12.53
2024-04-06T19:15:50.425Z,12.31
2024-04-06T19:18:18.282Z,12.07
2024-04-06T19:20:46.075Z,11.82
2024-04-06T19:23:14.317Z,11.61
2024-04-06T19:25:42.001Z,11.65
2024-04-06T19:28:09.856Z,12.43
2024-04-06T19:30:39.077Z,13.19
2024-04-06T19:33:07.075Z,13.72
2024-04-06T19:35:34.904Z,14.09
2024-04-06T19:38:02.816Z,14.38
2024-04-06T19:40:30.581Z,14.63
2024-04-06T19:42:58.723Z,14.83
2024-04-06T19:45:28.652Z,14.97
2024-04-06T19:47:56.624Z,15.08
2024-04-06T19:50:24.844Z,15.17
2024-04-06T19:52:52.673Z,15.25
2024-04-06T19:55:21.027Z,15.33
2024-04-06T19:57:49.152Z,15.37
2024-04-06T20:00:17.832Z,15.40
2024-04-06T20:02:47.384Z,15.45
2024-04-06T20:05:16.534Z,15.49
2024-04-06T20:07:45.082Z,15.50
2024-04-06T20:10:13.000Z,15.50
2024-04-06T20:12:42.318Z,14.97
2024-04-06T20:15:10.767Z,14.13
2024-04-06T20:17:38.532Z,13.44
2024-04-06T20:20:08.994Z,12.89
2024-04-06T20:23:02.813Z,12.42
2024-04-06T20:25:49.381Z,11.96
2024-04-06T20:28:20.199Z,11.59
2024-04-06T20:30:47.986Z,11.27
2024-04-06T20:33:15.791Z,10.97
2024-04-06T20:35:44.648Z,10.73
2024-04-06T20:38:14.508Z,11.11
2024-04-06T20:40:42.433Z,11.92
2024-04-06T20:43:11.835Z,12.51
2024-04-06T20:45:39.545Z,12.91
2024-04-06T20:48:08.142Z,13.20
2024-04-06T20:50:35.947Z,13.45
2024-04-06T20:53:05.320Z,13.66
2024-04-06T20:55:33.443Z,13.80
2024-04-06T20:58:04.727Z,13.94
2024-04-06T21:00:32.852Z,14.05
2024-04-06T21:03:02.266Z,14.11
2024-04-06T21:05:30.213Z,14.16
2024-04-06T21:07:58.115Z,14.20
2024-04-06T21:10:25.846Z,14.19
2024-04-06T21:12:54.794Z,14.20
2024-04-06T21:15:27.192Z,14.24
2024-04-06T21:17:57.292Z,14.28
2024-04-06T21:20:25.266Z,14.33
2024-04-06T21:22:54.090Z,14.35
2024-04-06T21:25:21.982Z,13.91
2024-04-06T21:27:49.802Z,13.08
2024-04-06T21:30:17.996Z,12.38
2024-04-06T21:32:48.031Z,11.84
2024-04-06T21:35:16.344Z,11.36
2024-04-06T21:37:46.601Z,10.96
2024-04-06T21:40:14.623Z,10.61
2024-04-06T21:42:42.938Z,10.29
2024-04-06T21:45:10.764Z,10.01
2024-04-06T21:47:38.623Z,9.79
2024-04-06T21:50:06.923Z,10.22
2024-04-06T21:52:34.671Z,11.02
2024-04-06T21:55:02.783Z,11.61
2024-04-06T21:57:30.549Z,12.02
2024-04-06T21:59:58.470Z,12.27
2024-04-06T22:02:26.232Z,12.53
2024-04-06T22:04:54.412Z,12.75
2024-04-06T22:07:22.128Z,12.94
2024-04-06T22:09:51.767Z,13.06
2024-04-06T22:12:19.444Z,13.17
2024-04-06T22:14:47.900Z,13.26
2024-04-06T22:17:16.097Z,13.35
2024-04-06T22:19:43.841Z,13.39
2024-04-06T22:22:11.731Z,13.43
2024-04-06T22:24:39.501Z,13.47
2024-04-06T22:27:07.268Z,13.49
2024-04-06T22:29:35.001Z,12.93
2024-04-06T22:32:02.807Z,12.07
2024-04-06T22:34:30.573Z,11.37
2024-04-06T22:36:58.323Z,10.82
2024-04-06T22:39:26.088Z,10.37
2024-04-06T22:41:53.768Z,10.13
2024-04-06T22:44:21.556Z,10.67
2024-04-06T22:46:49.333Z,11.28
2024-04-06T22:49:17.097Z,11.68
2024-04-06T22:51:44.791Z,11.95
2024-04-06T22:54:12.596Z,12.15
2024-04-06T22:56:40.271Z,12.33
2024-04-06T22:59:07.991Z,12.46
2024-04-06T23:01:35.724Z,12.56
2024-04-06T23:04:03.614Z,12.64
2024-04-06T23:06:31.349Z,12.73
2024-04-06T23:08:59.116Z,12.80
2024-04-06T23:11:27.212Z,12.88
2024-04-06T23:13:55.116Z,12.52
2024-04-06T23:16:24.164Z,11.67
2024-04-06T23:18:52.622Z,10.93
2024-04-06T23:21:20.525Z,10.37
2024-04-06T23:23:48.245Z,9.90
2024-04-06T23:26:16.927Z,9.47
2024-04-06T23:28:44.755Z,9.08
2024-04-06T23:31:12.580Z,8.76
2024-04-06T23:33:40.321Z,8.49
2024-04-06T23:36:09.132Z,8.23
2024-04-06T23:38:37.029Z,8.01
2024-04-06T23:41:04.753Z,8.42
2024-04-06T23:43:32.554Z,9.34
2024-04-06T23:46:03.681Z,10.03
2024-04-06T23:48:31.435Z,10.51
2024-04-06T23:51:00.720Z,10.85
2024-04-06T23:53:28.521Z,11.12
2024-04-06T23:55:56.359Z,11.36
2024-04-06T23:58:24.382Z,11.57
